Aérodrome :
LOGIN :

S'inscrire | Disclaimer

   EN    FR    IT 

 










Légende :    VFR   VFR Marginal   IFR   IFR Intensif   IFR Très Intensif
Visi : 
Plafond : 
>= 8 km
>= 3000ft
5 à 8 km
1000 à 3000 ft
1500m à 5 km
500 à 1000 ft
800 à 1500m
200 à 500 ft
< 800m
< 200 ft
Symboles :   Orages  Brouillard  Fortes neiges  Fortes précipitations  Vent > 20 kt
SIGMETs :   Divers  Orages  Givrage  Turbulence  Onde Orograph.  Cendres Volcan.







- Altitude de l'aérodrome : 602 ft
- Code IATA : NVS
- Voir les cartes d'approche


LFQG - Nevers

DERNIER METAR :
  • 131630Z AUTO 17011KT 9999 FEW017 SCT024 BKN030 07/05 Q1007

METARs EXPIRÉS :
  • 131600Z AUTO 18011KT 9999 -RA OVC021 07/05 Q1008
  • 131530Z AUTO 18008KT 9999 OVC017 08/06 Q1008
  • 131500Z AUTO 20010KT 9999 BKN020 BKN052 BKN062 08/05 Q1009
  • 131430Z AUTO 20009KT 9999 OVC020 08/05 Q1009
  • 131400Z AUTO 19009KT 9999 OVC017 08/05 Q1009

TAF N/A
Pas de NOTAMs connus pour ce terrain.
4 SIGMETs publiés pour la FIR Paris (LFFF) :
 
Turbulence forte
LFFF SIGMET 6 VALID 131700/132000 LFPW
LFFF PARIS FIR/UIR SEV TURB FCST S OF N4745 AND W OF E00300 SFC/FL050 MOV NE 40KT INTSF=
Annulation du SIGMET 4 
LFFF SIGMET 5 VALID 131600/132100 LFPW
LFFF PARIS FIR/UIR CNL SIGMET 4 131700/132100=
SIGMET 4  ANNULÉ :
Turbulence forte
LFFF SIGMET 4 VALID 131700/132100 LFPW
LFFF PARIS FIR/UIR SEV TURB FCST S OF N4745 AND W OF E00300 SFC/FL050 MOV NE 40KT INTSF=
Turbulence forte
LFFF SIGMET 3 VALID 131600/132000 LFPW
LFFF PARIS FIR/UIR SEV TURB FCST WI N4900 W00015 - N5000 W00015 - N5115 E00200 - N5100 E00215 - N5000 E00215 - N4900 W00015 SFC/FL050 MOV E 50KT NC=



MET'MAP, la Météo Aéronautique d'un coup d'oeil ! - Copyright ORBIFLY Décembre 2007 - Disclaimer

ORBIFLY MET'MAP TEAM :

Programmation & Développement : Alexandra Zaïnal
Conception & Développement : Baudouin d'Aumeries
Co-Programmation & Développement : Marc-Olivier Méhu
Soutien technique & logistique : Manuel Goepfert

Contact : metmap@orbifly.com




SOURCES & CREDITS :

   NOAA